Time;durP1;ratioP1;P1;durP2;ratioP2;P2;SDS_P1;SDS_P2;PMS_P1;PMS_P2;Temp;Humidity;BMP_temperature;BMP_pressure;BME280_temperature;BME280_humidity;BME280_pressure;Samples;Min_cycle;Max_cycle;Signal;HPM_P1;HPM_P2
2022/06/25 04:01:23;;;;;;;6.20;1.70;;;17.00;96.30;;;;;;5568246;23;20550;-78
2022/06/25 04:03:49;;;;;;;8.40;1.77;;;17.00;96.30;;;;;;4974773;28;20460;-78
2022/06/25 04:06:14;;;;;;;4.13;1.70;;;17.00;96.30;;;;;;4992082;28;20562;-78
2022/06/25 04:08:40;;;;;;;2.80;1.27;;;17.00;96.30;;;;;;4992162;28;20170;-78
2022/06/25 04:11:05;;;;;;;6.40;1.80;;;17.00;96.30;;;;;;4995788;28;20647;-78
2022/06/25 04:13:31;;;;;;;2.57;1.30;;;17.00;96.30;;;;;;4995788;28;20660;-78
2022/06/25 04:15:57;;;;;;;4.13;1.40;;;17.00;96.30;;;;;;5002868;28;20259;-78
2022/06/25 04:18:22;;;;;;;1.83;1.30;;;17.00;96.30;;;;;;5005099;28;20181;-78
2022/06/25 04:31:09;;;;;;;2.50;1.30;;;17.10;96.30;;;;;;5010508;23;20492;-81
2022/06/25 04:33:35;;;;;;;8.33;1.67;;;17.00;96.30;;;;;;4977798;28;20490;-78
2022/06/25 04:36:00;;;;;;;3.20;0.90;;;17.10;96.30;;;;;;4995645;28;20174;-80
2022/06/25 04:38:26;;;;;;;3.60;1.20;;;17.10;96.30;;;;;;4993350;28;20189;-79
2022/06/25 04:40:51;;;;;;;1.40;1.10;;;17.10;96.30;;;;;;4995204;28;20250;-78
2022/06/25 04:43:31;;;;;;;;;;;;;;;;;;;;;
2022/06/25 04:45:57;;;;;;;1.73;1.47;;;17.10;96.30;;;;;;4983871;28;20308;-78
2022/06/25 04:48:22;;;;;;;2.23;1.20;;;17.10;96.30;;;;;;4992592;28;20495;-78
2022/06/25 04:50:48;;;;;;;1.40;1.30;;;17.20;96.30;;;;;;4994462;28;20606;-78
2022/06/25 04:53:13;;;;;;;2.13;1.30;;;17.10;96.30;;;;;;4993244;28;20249;-78
2022/06/25 04:55:39;;;;;;;2.90;1.80;;;17.10;96.30;;;;;;4994479;28;20182;-78
2022/06/25 04:58:05;;;;;;;2.83;1.10;;;17.10;96.30;;;;;;4994164;28;20181;-78
2022/06/25 05:00:30;;;;;;;2.13;1.20;;;17.10;96.30;;;;;;4994508;28;20205;-79
2022/06/25 05:02:56;;;;;;;2.10;1.20;;;17.10;96.30;;;;;;4994292;28;20209;-78
2022/06/25 05:05:21;;;;;;;1.70;1.47;;;17.10;96.30;;;;;;4976825;28;20209;-78
2022/06/25 05:07:47;;;;;;;3.10;1.37;;;17.00;96.30;;;;;;4993716;28;20699;-78
2022/06/25 05:10:12;;;;;;;1.57;1.40;;;17.00;96.30;;;;;;4994254;28;20174;-78
2022/06/25 05:15:22;;;;;;;2.47;1.30;;;17.00;96.30;;;;;;4994544;28;20197;-78
2022/06/25 05:17:48;;;;;;;3.00;1.67;;;16.90;96.30;;;;;;4976156;28;20429;-78
2022/06/25 05:20:13;;;;;;;1.53;1.43;;;16.80;96.30;;;;;;4992695;28;20236;-79
2022/06/25 05:22:39;;;;;;;2.63;1.60;;;16.80;96.30;;;;;;4994113;28;20416;-78
2022/06/25 05:25:05;;;;;;;2.27;1.60;;;16.80;96.30;;;;;;4994252;28;20209;-78
2022/06/25 05:27:30;;;;;;;4.47;1.70;;;16.80;96.30;;;;;;4975830;28;20228;-79
2022/06/25 05:29:56;;;;;;;7.30;1.80;;;16.80;96.30;;;;;;4976612;28;20527;-79
2022/06/25 05:32:21;;;;;;;3.63;1.73;;;16.80;96.30;;;;;;4994575;28;20700;-79
2022/06/25 05:34:48;;;;;;;7.80;2.03;;;16.80;96.30;;;;;;4995010;28;20178;-79
2022/06/25 05:37:14;;;;;;;4.47;1.80;;;16.80;96.30;;;;;;4994435;28;20599;-78
2022/06/25 05:39:40;;;;;;;5.60;1.80;;;16.70;96.30;;;;;;4991867;28;20932;-76
2022/06/25 05:42:05;;;;;;;2.70;2.33;;;16.70;96.30;;;;;;4992458;28;20522;-76
2022/06/25 05:44:31;;;;;;;1.67;1.57;;;16.60;96.30;;;;;;4993093;28;20170;-76
2022/06/25 05:46:56;;;;;;;4.63;1.80;;;16.60;96.30;;;;;;4992959;28;20265;-77
2022/06/25 05:49:22;;;;;;;6.90;2.60;;;16.50;96.30;;;;;;4992702;28;20664;-76
2022/06/25 05:51:47;;;;;;;5.20;1.97;;;16.50;96.30;;;;;;4975212;28;20224;-76
2022/06/25 05:54:13;;;;;;;2.10;1.97;;;16.50;96.30;;;;;;4993121;28;20166;-77
2022/06/25 05:56:38;;;;;;;2.60;1.80;;;16.60;96.30;;;;;;4993295;28;20708;-78
2022/06/25 05:59:04;;;;;;;2.50;1.83;;;16.60;96.30;;;;;;4993052;28;20177;-78
2022/06/25 06:01:30;;;;;;;2.27;1.90;;;16.60;96.30;;;;;;4976102;28;20240;-78
2022/06/25 06:03:55;;;;;;;4.90;2.30;;;16.60;96.30;;;;;;4992915;28;20175;-78
2022/06/25 06:06:21;;;;;;;10.17;2.07;;;16.70;96.30;;;;;;4993250;28;20457;-78
2022/06/25 06:08:46;;;;;;;2.67;1.70;;;16.80;96.30;;;;;;4992688;28;20201;-79
2022/06/25 06:11:12;;;;;;;2.37;1.90;;;16.70;96.30;;;;;;4993369;28;20197;-78
2022/06/25 06:13:37;;;;;;;4.10;2.00;;;16.80;96.30;;;;;;4993271;28;20679;-79
2022/06/25 06:16:03;;;;;;;2.33;2.13;;;16.90;96.30;;;;;;4993185;28;20174;-79
2022/06/25 06:18:29;;;;;;;3.27;2.40;;;16.90;96.30;;;;;;4975163;28;20301;-80
2022/06/25 06:20:54;;;;;;;4.00;2.33;;;16.90;96.30;;;;;;4993284;28;20213;-79
2022/06/25 06:23:20;;;;;;;2.53;2.33;;;16.90;96.30;;;;;;4975498;28;20177;-79
2022/06/25 06:25:45;;;;;;;3.53;2.60;;;17.00;96.30;;;;;;4993037;28;20723;-79
2022/06/25 06:28:11;;;;;;;2.77;2.57;;;17.00;96.30;;;;;;4992717;28;20186;-78
2022/06/25 06:30:36;;;;;;;3.33;2.23;;;17.10;96.30;;;;;;4996228;28;20291;-79
2022/06/25 06:33:02;;;;;;;3.40;2.30;;;17.00;96.30;;;;;;4993811;28;20181;-79
2022/06/25 06:35:27;;;;;;;5.83;2.57;;;17.10;96.30;;;;;;4996578;28;20634;-78
2022/06/25 06:37:53;;;;;;;2.70;2.40;;;17.30;96.30;;;;;;4996163;28;20236;-79
2022/06/25 06:40:18;;;;;;;2.63;2.30;;;17.40;96.30;;;;;;4979674;28;20225;-79
2022/06/25 06:42:43;;;;;;;2.27;2.07;;;17.60;96.30;;;;;;4996597;28;20165;-78
2022/06/25 06:45:10;;;;;;;4.20;2.33;;;17.60;96.30;;;;;;4999253;28;20200;-77
2022/06/25 06:47:35;;;;;;;5.30;2.30;;;17.70;96.30;;;;;;4996229;28;20174;-78
2022/06/25 06:50:01;;;;;;;5.43;2.10;;;17.70;96.30;;;;;;4978317;28;20434;-77
2022/06/25 06:52:26;;;;;;;3.57;2.23;;;17.60;96.30;;;;;;4976867;28;20197;-78
2022/06/25 06:54:53;;;;;;;2.10;2.00;;;17.70;96.30;;;;;;4994478;28;20177;-76
2022/06/25 06:57:18;;;;;;;2.33;2.00;;;17.70;96.30;;;;;;4994637;28;20224;-76
2022/06/25 06:59:44;;;;;;;5.10;2.10;;;17.80;96.30;;;;;;4974980;28;20428;-75
2022/06/25 07:02:09;;;;;;;2.70;1.67;;;17.80;96.30;;;;;;4993838;28;20672;-77
2022/06/25 07:04:35;;;;;;;3.00;1.90;;;17.80;96.30;;;;;;4993729;28;20173;-77
2022/06/25 07:07:01;;;;;;;3.70;2.40;;;17.80;96.30;;;;;;4993773;28;20170;-77
2022/06/25 07:09:26;;;;;;;7.57;3.20;;;17.90;96.30;;;;;;4994141;28;20177;-77
2022/06/25 07:11:52;;;;;;;4.93;2.50;;;17.80;96.30;;;;;;4994458;28;20677;-76
2022/06/25 07:14:17;;;;;;;3.50;2.37;;;17.80;96.30;;;;;;4976607;28;20173;-76
2022/06/25 07:16:43;;;;;;;3.57;2.10;;;17.70;96.30;;;;;;4994410;28;20521;-79
2022/06/25 07:19:10;;;;;;;7.17;2.77;;;17.70;96.30;;;;;;4976189;28;20189;-76
2022/06/25 07:21:36;;;;;;;1.97;1.70;;;17.70;96.30;;;;;;4994163;28;20204;-77
2022/06/25 07:24:01;;;;;;;2.17;2.00;;;17.70;96.30;;;;;;4994191;28;20409;-78
2022/06/25 07:26:27;;;;;;;3.03;2.20;;;17.70;96.30;;;;;;4993026;28;20208;-74
2022/06/25 07:28:53;;;;;;;2.40;2.20;;;17.70;96.30;;;;;;4974925;28;20629;-75
2022/06/25 07:31:19;;;;;;;2.30;2.10;;;17.80;96.30;;;;;;4993568;28;20248;-75
2022/06/25 07:33:44;;;;;;;2.50;2.27;;;17.80;96.30;;;;;;4993186;28;20408;-75
2022/06/25 07:36:10;;;;;;;4.53;2.10;;;17.90;96.30;;;;;;4993596;28;20264;-76
2022/06/25 07:38:37;;;;;;;4.20;2.40;;;17.90;96.30;;;;;;4993261;28;20244;-77
2022/06/25 07:41:03;;;;;;;3.40;2.30;;;18.00;96.30;;;;;;4993921;28;20200;-76
2022/06/25 07:43:28;;;;;;;3.77;2.63;;;18.00;96.30;;;;;;4994020;28;20421;-77
2022/06/25 07:45:55;;;;;;;1.87;1.77;;;18.00;96.30;;;;;;4997786;28;20447;-77
2022/06/25 07:48:21;;;;;;;2.87;2.27;;;17.90;96.30;;;;;;4997892;28;20215;-75
2022/06/25 07:53:31;;;;;;;2.10;1.90;;;18.20;96.30;;;;;;4998194;28;20223;-76
2022/06/25 07:55:56;;;;;;;5.70;2.70;;;18.30;96.30;;;;;;4980471;28;20428;-75
2022/06/25 07:58:23;;;;;;;5.90;2.30;;;18.50;96.30;;;;;;4997985;28;20236;-77
2022/06/25 08:00:49;;;;;;;2.60;2.40;;;18.60;96.30;;;;;;4981924;28;20197;-76
2022/06/25 08:03:14;;;;;;;4.40;2.57;;;18.60;96.30;;;;;;4981015;28;20412;-76
2022/06/25 08:05:40;;;;;;;2.53;2.30;;;18.50;96.30;;;;;;4997383;28;20455;-77
2022/06/25 08:08:05;;;;;;;4.20;2.83;;;18.40;96.30;;;;;;4996822;28;20174;-74
2022/06/25 08:10:31;;;;;;;5.90;3.30;;;18.40;96.30;;;;;;4995769;28;20194;-78
2022/06/25 08:12:56;;;;;;;4.17;2.47;;;18.30;96.30;;;;;;4996264;28;20218;-76
2022/06/25 08:15:22;;;;;;;3.03;2.73;;;18.30;96.30;;;;;;4978425;28;20181;-81
2022/06/25 08:17:47;;;;;;;3.53;2.60;;;18.20;96.30;;;;;;4995429;28;20517;-77
2022/06/25 08:20:13;;;;;;;3.13;2.73;;;18.20;96.30;;;;;;4995673;28;20205;-78
2022/06/25 08:22:39;;;;;;;2.60;2.40;;;18.20;96.30;;;;;;4995621;28;20201;-80
2022/06/25 08:25:07;;;;;;;3.00;2.70;;;18.30;96.30;;;;;;4995288;28;20665;-82
2022/06/25 08:27:33;;;;;;;4.30;2.57;;;18.40;96.30;;;;;;4977766;28;20417;-83
2022/06/25 08:29:59;;;;;;;4.10;2.40;;;18.40;96.30;;;;;;4977823;28;20551;-82
2022/06/25 08:32:24;;;;;;;4.07;2.93;;;18.40;96.30;;;;;;4978107;28;20499;-81
2022/06/25 08:34:50;;;;;;;4.20;2.77;;;18.40;96.30;;;;;;4995896;28;20645;-81
2022/06/25 08:37:15;;;;;;;2.73;2.47;;;18.40;96.30;;;;;;4995951;28;20642;-81
2022/06/25 08:39:41;;;;;;;3.40;2.77;;;18.50;96.30;;;;;;4977740;28;20173;-81
2022/06/25 08:42:06;;;;;;;5.10;2.23;;;18.50;96.30;;;;;;4978553;28;20221;-81
2022/06/25 08:44:32;;;;;;;3.70;2.70;;;18.50;96.30;;;;;;4995438;28;20181;-80
2022/06/25 08:46:58;;;;;;;4.43;2.77;;;18.60;96.30;;;;;;4995558;28;20201;-81
2022/06/25 08:49:24;;;;;;;4.07;2.70;;;18.80;96.30;;;;;;4996606;28;20586;-81
2022/06/25 08:51:53;;;;;;;7.60;2.43;;;18.90;96.30;;;;;;4977734;28;20516;-81
2022/06/25 08:54:19;;;;;;;2.90;2.70;;;19.00;96.30;;;;;;4977597;28;20409;-79
2022/06/25 08:56:46;;;;;;;2.60;2.40;;;19.10;96.30;;;;;;4995871;28;20433;-80
2022/06/25 08:59:12;;;;;;;3.53;2.60;;;19.30;96.30;;;;;;4995232;28;20425;-81
2022/06/25 09:01:38;;;;;;;8.53;2.70;;;19.50;96.30;;;;;;4995050;28;20444;-80
2022/06/25 09:04:04;;;;;;;2.60;2.40;;;19.60;96.30;;;;;;4995149;28;20217;-81
2022/06/25 09:06:29;;;;;;;5.13;3.10;;;19.70;96.30;;;;;;4995088;28;20453;-80
2022/06/25 09:09:12;;;;;;;12.60;2.63;;;19.60;96.30;;;;;;4994732;28;20672;-81
2022/06/25 09:11:55;;;;;;;9.33;2.80;;;19.60;96.30;;;;;;4994865;28;20189;-80
2022/06/25 09:14:22;;;;;;;2.80;2.40;;;19.80;96.30;;;;;;4994850;28;20420;-81
2022/06/25 09:16:53;;;;;;;3.37;3.07;;;19.80;96.30;;;;;;4977348;28;20508;-80
2022/06/25 09:19:36;;;;;;;4.23;2.83;;;19.80;96.30;;;;;;4994570;28;20431;-81
2022/06/25 09:22:05;;;;;;;4.03;2.40;;;19.70;96.30;;;;;;4994684;28;20439;-81
2022/06/25 09:24:46;;;;;;;3.03;2.70;;;19.50;96.30;;;;;;4994488;28;20459;-81
2022/06/25 09:27:19;;;;;;;6.73;2.57;;;19.60;96.30;;;;;;4992715;28;20452;-80
2022/06/25 09:29:50;;;;;;;5.00;2.83;;;19.80;96.30;;;;;;4993137;28;20417;-81
2022/06/25 09:32:17;;;;;;;3.33;3.03;;;19.90;96.30;;;;;;4977000;28;20812;-80
2022/06/25 09:34:43;;;;;;;5.43;3.07;;;20.00;96.30;;;;;;4994294;28;20877;-81
2022/06/25 09:37:35;;;;;;;6.30;3.40;;;20.10;96.30;;;;;;4994490;28;20483;-82
2022/06/25 09:40:02;;;;;;;4.93;4.40;;;20.20;96.30;;;;;;4990903;28;20280;-80
2022/06/25 09:42:33;;;;;;;5.57;3.30;;;20.20;96.30;;;;;;4996144;28;20432;-80
2022/06/25 09:45:06;;;;;;;5.30;3.43;;;20.20;96.30;;;;;;4997763;28;20746;-80
2022/06/25 09:47:53;;;;;;;6.03;3.87;;;20.20;96.30;;;;;;4992250;28;20494;-80
2022/06/25 09:50:19;;;;;;;4.40;3.53;;;20.10;96.30;;;;;;4979475;28;20424;-80
2022/06/25 09:53:01;;;;;;;3.73;3.10;;;20.00;96.30;;;;;;4997640;28;20405;-80
2022/06/25 09:55:34;;;;;;;3.70;3.40;;;20.10;96.30;;;;;;4997253;28;20416;-80
2022/06/25 09:58:01;;;;;;;3.87;3.40;;;20.30;96.30;;;;;;4995736;28;20411;-80
2022/06/25 10:00:27;;;;;;;4.13;2.83;;;20.50;96.30;;;;;;4999103;28;20408;-80
2022/06/25 10:02:56;;;;;;;3.50;3.20;;;20.70;96.30;;;;;;4999662;28;20765;-80
2022/06/25 10:05:38;;;;;;;3.73;3.47;;;20.80;96.30;;;;;;4992339;28;20453;-80
2022/06/25 10:08:09;;;;;;;3.83;3.40;;;20.90;96.30;;;;;;5000059;28;20404;-80
2022/06/25 10:10:40;;;;;;;6.43;4.20;;;21.00;96.30;;;;;;5000140;28;20429;-79
2022/06/25 10:13:07;;;;;;;4.00;3.60;;;21.20;96.30;;;;;;4995074;28;20405;-80
2022/06/25 10:15:33;;;;;;;5.83;3.60;;;21.30;96.30;;;;;;4992777;28;20409;-80
2022/06/25 10:18:02;;;;;;;4.50;4.10;;;21.40;96.30;;;;;;4992272;28;20496;-80
2022/06/25 10:20:28;;;;;;;4.13;3.73;;;21.40;96.30;;;;;;4983454;28;20421;-80
2022/06/25 10:22:54;;;;;;;4.50;4.10;;;21.50;96.30;;;;;;4992404;28;20424;-80
2022/06/25 10:25:23;;;;;;;5.57;3.73;;;21.70;96.30;;;;;;4991613;28;20464;-80
2022/06/25 10:27:50;;;;;;;7.03;3.80;;;21.70;96.30;;;;;;4993108;28;20197;-80
2022/06/25 10:30:41;;;;;;;6.60;3.60;;;21.80;96.30;;;;;;4993169;28;20440;-80
2022/06/25 10:33:07;;;;;;;6.97;4.80;;;21.90;96.30;;;;;;4975851;28;20421;-81
2022/06/25 10:35:38;;;;;;;8.57;4.50;;;22.00;96.30;;;;;;4993342;28;20413;-81
2022/06/25 10:38:24;;;;;;;4.90;3.70;;;22.20;96.30;;;;;;4992898;28;20178;-80
2022/06/25 10:40:54;;;;;;;4.90;4.17;;;22.60;96.30;;;;;;4992937;28;20519;-80
2022/06/25 10:43:50;;;;;;;5.73;4.20;;;22.80;96.30;;;;;;4992757;28;20425;-80
2022/06/25 10:46:36;;;;;;;5.60;4.90;;;23.00;96.30;;;;;;4976637;28;20942;-79
2022/06/25 10:49:22;;;;;;;6.00;4.90;;;22.80;96.30;;;;;;4977016;28;20410;-78
2022/06/25 10:51:49;;;;;;;7.43;4.83;;;22.70;96.30;;;;;;4973324;28;20430;-78
2022/06/25 10:54:26;;;;;;;4.87;4.40;;;22.70;96.30;;;;;;4957719;28;21296;-80
2022/06/25 10:56:58;;;;;;;5.10;4.67;;;23.00;96.30;;;;;;4992724;28;20420;-80
2022/06/25 10:59:36;;;;;;;5.07;4.30;;;23.30;96.30;;;;;;4974440;28;20496;-80
2022/06/25 11:02:07;;;;;;;6.40;4.60;;;23.50;96.30;;;;;;4992053;28;20440;-80
2022/06/25 11:04:34;;;;;;;5.60;4.20;;;24.00;96.30;;;;;;4992715;28;20428;-80
2022/06/25 11:07:11;;;;;;;6.23;4.30;;;24.30;96.30;;;;;;4992741;28;20456;-80
2022/06/25 11:09:37;;;;;;;5.20;4.80;;;24.20;96.30;;;;;;4992949;28;20427;-79
2022/06/25 11:12:05;;;;;;;4.53;4.13;;;24.20;96.30;;;;;;4993729;28;20521;-75
2022/06/25 11:14:31;;;;;;;5.63;5.13;;;24.40;96.30;;;;;;4993292;28;20420;-79
2022/06/25 11:16:57;;;;;;;5.50;5.00;;;24.50;96.30;;;;;;4992981;28;20416;-82
2022/06/25 11:19:24;;;;;;;4.60;4.23;;;24.70;96.30;;;;;;4996222;28;20181;-82
2022/06/25 11:21:50;;;;;;;5.50;4.73;;;24.70;96.30;;;;;;4997243;28;20201;-82
2022/06/25 11:24:24;;;;;;;5.60;4.23;;;24.70;96.30;;;;;;4996663;28;20463;-82
2022/06/25 11:29:48;;;;;;;5.13;4.30;;;24.60;96.30;;;;;;4997353;28;20935;-82
2022/06/25 11:32:15;;;;;;;4.37;3.97;;;24.20;96.30;;;;;;4998881;28;20428;-82
2022/06/25 11:34:41;;;;;;;4.20;3.80;;;24.40;96.30;;;;;;4996870;28;20405;-82
2022/06/25 11:37:10;;;;;;;4.73;3.60;;;24.20;96.30;;;;;;4996950;28;20431;-82
2022/06/25 11:39:38;;;;;;;4.40;4.00;;;24.10;96.30;;;;;;4981929;28;20417;-82
2022/06/25 11:42:08;;;;;;;4.30;3.90;;;24.10;96.30;;;;;;4986090;28;20440;-82
2022/06/25 11:44:44;;;;;;;4.53;3.70;;;24.20;96.30;;;;;;4981167;28;20422;-83
2022/06/25 11:47:12;;;;;;;3.77;3.47;;;24.50;96.30;;;;;;4997321;28;20851;-76
2022/06/25 11:49:39;;;;;;;3.80;3.50;;;24.70;96.30;;;;;;4996218;28;20864;-77
2022/06/25 11:52:05;;;;;;;4.30;3.90;;;25.10;96.30;;;;;;4978934;28;20436;-76
2022/06/25 11:54:36;;;;;;;6.23;3.60;;;25.40;96.30;;;;;;4996590;28;20405;-77
2022/06/25 11:57:03;;;;;;;4.30;3.90;;;25.30;96.30;;;;;;4996613;28;20396;-77
2022/06/25 11:59:34;;;;;;;4.63;4.23;;;25.40;96.30;;;;;;4996155;28;20492;-76
2022/06/25 12:02:00;;;;;;;3.70;3.40;;;25.40;96.30;;;;;;4978843;28;20428;-77
2022/06/25 12:04:26;;;;;;;4.00;3.67;;;25.30;96.30;;;;;;4996247;28;20945;-79
2022/06/25 12:06:52;;;;;;;3.47;3.17;;;25.40;96.30;;;;;;4995875;28;20280;-82
2022/06/25 12:09:19;;;;;;;3.30;3.10;;;25.60;96.30;;;;;;4978353;28;20412;-82
2022/06/25 12:11:52;;;;;;;3.63;3.33;;;25.90;96.30;;;;;;4996068;28;20464;-82
2022/06/25 12:14:23;;;;;;;3.93;3.50;;;25.30;96.30;;;;;;4978671;28;20427;-82
2022/06/25 12:16:50;;;;;;;4.03;3.20;;;25.20;96.30;;;;;;4996039;28;20412;-82
2022/06/25 12:19:17;;;;;;;3.37;3.17;;;25.10;96.30;;;;;;4995707;28;20507;-82
2022/06/25 12:21:43;;;;;;;3.10;2.90;;;25.00;96.30;;;;;;4978397;28;20440;-82
2022/06/25 12:24:12;;;;;;;3.27;2.97;;;24.90;96.30;;;;;;4995662;28;20408;-82
2022/06/25 12:26:39;;;;;;;3.20;2.90;;;25.10;96.30;;;;;;4995628;28;20693;-83
2022/06/25 12:29:17;;;;;;;3.77;3.10;;;25.00;96.30;;;;;;4977340;28;20416;-82
2022/06/25 12:31:52;;;;;;;5.60;3.20;;;25.00;96.30;;;;;;4978312;28;20428;-82
2022/06/25 12:34:18;;;;;;;9.70;3.20;;;24.90;96.30;;;;;;4978203;28;20416;-82
2022/06/25 12:36:43;;;;;;;2.90;2.60;;;24.60;96.30;;;;;;4995597;28;20413;-82
2022/06/25 12:39:32;;;;;;;5.10;3.00;;;24.40;96.30;;;;;;4995470;28;20185;-82
2022/06/25 12:42:06;;;;;;;3.90;3.60;;;24.30;96.30;;;;;;4977940;28;20704;-82
2022/06/25 12:44:34;;;;;;;4.30;3.00;;;24.40;96.30;;;;;;4995539;28;20409;-82
2022/06/25 12:47:05;;;;;;;6.07;3.27;;;24.60;96.30;;;;;;4977772;28;20464;-82
2022/06/25 12:49:43;;;;;;;3.70;3.40;;;24.50;96.30;;;;;;4995098;28;20401;-82
2022/06/25 12:52:09;;;;;;;3.20;3.00;;;24.50;96.30;;;;;;4995278;28;20483;-82
2022/06/25 12:54:46;;;;;;;6.10;3.47;;;24.40;96.30;;;;;;4995268;28;20405;-82
2022/06/25 12:57:27;;;;;;;3.93;3.30;;;24.70;96.30;;;;;;4995170;28;20173;-82
2022/06/25 12:59:54;;;;;;;4.23;3.43;;;24.70;96.30;;;;;;4977787;28;20431;-82
2022/06/25 13:02:20;;;;;;;5.53;3.57;;;24.70;96.30;;;;;;4977569;28;20532;-82
2022/06/25 13:04:46;;;;;;;3.90;3.60;;;24.90;96.30;;;;;;4994900;28;20479;-82
2022/06/25 13:07:13;;;;;;;5.10;4.07;;;25.10;96.30;;;;;;4977616;28;20464;-82
2022/06/25 13:09:39;;;;;;;3.60;3.30;;;25.10;96.30;;;;;;4994891;28;20405;-82
2022/06/25 13:12:06;;;;;;;3.90;3.60;;;24.90;96.30;;;;;;4994954;28;20515;-82
2022/06/25 13:14:31;;;;;;;3.70;3.37;;;25.00;96.30;;;;;;4995002;28;20408;-82
2022/06/25 13:16:57;;;;;;;3.27;3.07;;;25.20;96.30;;;;;;4977495;28;20416;-82
2022/06/25 13:19:24;;;;;;;4.00;3.70;;;25.30;96.30;;;;;;4994459;28;20170;-82
2022/06/25 13:21:50;;;;;;;3.13;2.87;;;25.60;96.30;;;;;;4994793;28;20672;-81
2022/06/25 13:24:15;;;;;;;4.87;3.30;;;25.70;96.30;;;;;;4994706;28;20427;-82
2022/06/25 13:26:42;;;;;;;3.70;3.40;;;25.80;96.30;;;;;;4994539;28;20201;-82
2022/06/25 13:29:08;;;;;;;3.77;3.47;;;25.80;96.30;;;;;;4994259;28;20274;-82
2022/06/25 13:31:33;;;;;;;4.33;3.00;;;25.80;96.30;;;;;;4994514;28;20424;-82
2022/06/25 13:33:59;;;;;;;3.27;2.97;;;25.80;96.30;;;;;;4994403;28;20416;-82
2022/06/25 13:36:25;;;;;;;3.47;2.80;;;25.80;96.30;;;;;;4994502;28;20630;-82
2022/06/25 13:38:50;;;;;;;5.87;3.20;;;25.80;96.30;;;;;;4994138;28;20199;-82
2022/06/25 13:41:16;;;;;;;4.40;3.20;;;25.90;96.30;;;;;;4993283;28;20288;-82
2022/06/25 13:43:41;;;;;;;3.80;3.23;;;26.00;96.30;;;;;;4994216;28;20543;-82
2022/06/25 13:46:07;;;;;;;3.40;2.70;;;26.00;96.30;;;;;;4976653;28;20204;-82
2022/06/25 13:48:32;;;;;;;4.37;3.10;;;25.90;96.30;;;;;;4976375;28;20165;-81
2022/06/25 13:50:58;;;;;;;3.57;2.80;;;25.80;96.30;;;;;;4994048;28;20755;-82
2022/06/25 13:53:23;;;;;;;2.83;2.50;;;26.00;96.30;;;;;;4994145;28;20228;-82
2022/06/25 13:55:50;;;;;;;5.67;3.40;;;26.10;96.30;;;;;;4995431;28;20220;-82
2022/06/25 13:58:16;;;;;;;3.23;2.87;;;26.00;96.30;;;;;;4996037;28;20192;-82
2022/06/25 14:00:43;;;;;;;4.73;3.30;;;26.00;96.30;;;;;;4995644;28;20826;-82
2022/06/25 14:03:10;;;;;;;4.17;3.07;;;26.00;96.30;;;;;;4993844;28;20541;-82
2022/06/25 14:05:36;;;;;;;4.77;3.30;;;26.10;96.30;;;;;;4976289;28;20494;-82
2022/06/25 14:08:01;;;;;;;9.87;3.40;;;26.10;96.30;;;;;;4993587;28;20416;-82
2022/06/25 14:10:27;;;;;;;4.03;2.93;;;26.20;95.50;;;;;;4976160;28;20268;-82
2022/06/25 14:12:52;;;;;;;3.73;3.03;;;26.10;96.30;;;;;;4993719;28;20165;-82
2022/06/25 14:15:18;;;;;;;5.97;2.73;;;25.30;96.30;;;;;;4976191;28;20177;-82
2022/06/25 14:17:43;;;;;;;3.50;3.20;;;25.40;96.30;;;;;;4993261;28;20771;-81
2022/06/25 14:20:09;;;;;;;13.07;3.17;;;25.60;96.30;;;;;;4993693;28;20174;-82
2022/06/25 14:22:35;;;;;;;6.50;2.93;;;25.60;96.30;;;;;;4976030;28;20617;-82
2022/06/25 14:27:44;;;;;;;2.80;2.60;;;26.00;96.30;;;;;;4993264;28;20644;-82
2022/06/25 14:30:10;;;;;;;3.60;2.30;;;26.00;96.30;;;;;;4975765;28;20440;-83
2022/06/25 14:32:35;;;;;;;12.03;2.63;;;25.90;95.80;;;;;;4993128;28;20324;-82
2022/06/25 14:35:01;;;;;;;7.70;2.37;;;25.80;95.90;;;;;;4993369;28;20169;-82
2022/06/25 14:42:56;;;;;;;10.73;3.17;;;25.20;96.30;;;;;;4994161;28;20497;-82
2022/06/25 14:45:21;;;;;;;2.70;2.50;;;25.30;96.30;;;;;;4994104;28;20452;-81
2022/06/25 14:47:47;;;;;;;6.20;2.83;;;25.20;96.30;;;;;;4996660;28;20419;-80
2022/06/25 14:50:12;;;;;;;6.20;2.47;;;25.30;96.30;;;;;;4978001;28;20169;-82
2022/06/25 14:52:38;;;;;;;3.07;2.80;;;25.40;96.30;;;;;;4977409;28;20216;-83
2022/06/25 14:55:04;;;;;;;2.70;2.33;;;25.40;96.30;;;;;;4992935;28;20521;-82
2022/06/25 14:57:30;;;;;;;4.17;2.40;;;25.60;96.30;;;;;;4975356;28;21028;-82
2022/06/25 14:59:55;;;;;;;6.97;2.77;;;25.80;96.30;;;;;;4973974;28;20527;-82
2022/06/25 15:02:21;;;;;;;7.30;2.40;;;25.80;94.60;;;;;;4992601;28;20194;-82
2022/06/25 15:04:46;;;;;;;4.53;2.83;;;25.70;93.60;;;;;;4992901;28;20700;-82
2022/06/25 15:07:12;;;;;;;2.77;2.47;;;25.70;94.40;;;;;;4992643;28;20208;-82
2022/06/25 15:09:37;;;;;;;3.00;2.30;;;25.50;94.40;;;;;;4975160;28;20205;-82
2022/06/25 15:12:03;;;;;;;4.73;3.50;;;25.60;95.30;;;;;;4994177;28;20212;-81
2022/06/25 15:14:28;;;;;;;4.50;2.93;;;25.70;95.10;;;;;;4995753;28;20203;-80
2022/06/25 15:16:54;;;;;;;3.03;2.37;;;25.60;96.30;;;;;;4979262;28;20183;-80
2022/06/25 15:19:19;;;;;;;3.20;2.63;;;25.40;96.30;;;;;;4996591;28;20180;-80
2022/06/25 15:21:45;;;;;;;5.77;2.43;;;25.60;96.30;;;;;;4993533;28;20229;-82
2022/06/25 15:24:10;;;;;;;3.20;2.27;;;25.70;96.30;;;;;;4994393;28;20183;-81
2022/06/25 15:26:36;;;;;;;3.67;2.30;;;25.70;96.30;;;;;;4994016;28;20743;-80
2022/06/25 15:29:02;;;;;;;5.00;2.40;;;25.70;96.30;;;;;;4994702;28;20192;-81
2022/06/25 15:31:27;;;;;;;2.60;2.17;;;25.80;96.30;;;;;;4996303;28;20700;-81
2022/06/25 15:33:53;;;;;;;5.60;2.23;;;25.60;92.80;;;;;;4994775;28;20277;-81
2022/06/25 15:36:18;;;;;;;4.07;2.50;;;25.80;93.00;;;;;;4994784;28;20602;-81
2022/06/25 15:38:44;;;;;;;2.33;2.13;;;25.90;95.10;;;;;;4993592;28;20192;-81
2022/06/25 15:41:10;;;;;;;2.40;1.90;;;25.90;94.70;;;;;;4993853;28;20204;-81
2022/06/25 15:43:36;;;;;;;2.70;2.27;;;25.80;95.50;;;;;;4991522;28;20291;-81
2022/06/25 15:46:02;;;;;;;3.53;2.73;;;25.60;93.50;;;;;;4991765;28;20547;-81
2022/06/25 15:48:27;;;;;;;3.77;2.43;;;25.60;93.90;;;;;;4975555;28;20181;-81
2022/06/25 15:50:53;;;;;;;2.53;2.33;;;25.70;96.30;;;;;;4992889;28;20235;-81
2022/06/25 15:53:19;;;;;;;3.90;2.30;;;25.80;95.80;;;;;;4983569;28;20572;-82
2022/06/25 15:55:45;;;;;;;2.63;2.43;;;25.90;96.30;;;;;;4992564;28;20668;-81
2022/06/25 15:58:10;;;;;;;4.33;2.30;;;25.90;95.20;;;;;;4993081;28;20185;-81
2022/06/25 16:00:37;;;;;;;2.07;1.97;;;25.90;96.20;;;;;;4994438;28;20428;-81
2022/06/25 16:03:03;;;;;;;5.40;2.30;;;25.90;96.30;;;;;;4993010;28;20247;-81
2022/06/25 16:05:30;;;;;;;2.60;2.30;;;25.80;96.30;;;;;;4994500;28;20452;-81
2022/06/25 16:07:56;;;;;;;2.70;2.23;;;25.70;96.30;;;;;;4980148;28;20499;-81
2022/06/25 16:10:23;;;;;;;5.10;2.17;;;25.70;96.30;;;;;;4985471;28;20483;-81
2022/06/25 16:12:48;;;;;;;3.40;2.17;;;25.60;96.30;;;;;;4997466;28;20408;-81
2022/06/25 16:15:14;;;;;;;4.20;2.80;;;25.50;96.30;;;;;;4998493;28;20454;-81
2022/06/25 16:17:41;;;;;;;3.60;2.33;;;25.50;96.00;;;;;;4980795;28;20173;-81
2022/06/25 16:20:09;;;;;;;2.97;2.67;;;25.40;96.30;;;;;;4981023;28;20193;-81
2022/06/25 16:22:35;;;;;;;2.63;2.33;;;25.40;96.30;;;;;;4998698;28;20439;-81
2022/06/25 16:25:00;;;;;;;2.70;2.43;;;25.30;94.40;;;;;;4982893;28;20507;-81
2022/06/25 16:27:26;;;;;;;2.40;2.20;;;25.20;95.50;;;;;;4983506;28;20918;-80
2022/06/25 16:29:52;;;;;;;2.50;2.30;;;25.10;96.30;;;;;;4982348;28;20184;-79
2022/06/25 16:32:17;;;;;;;2.77;2.10;;;25.10;96.30;;;;;;4981862;28;20273;-81
2022/06/25 16:34:42;;;;;;;3.10;2.60;;;25.00;96.30;;;;;;5000860;28;20660;-81
2022/06/25 16:37:08;;;;;;;3.70;2.47;;;24.90;96.30;;;;;;4997405;28;20270;-77
2022/06/25 16:39:34;;;;;;;6.07;2.70;;;24.90;96.30;;;;;;4997165;28;20177;-80
2022/06/25 16:42:00;;;;;;;5.93;2.97;;;24.80;96.30;;;;;;4995609;28;20197;-78
2022/06/25 16:44:25;;;;;;;2.50;2.27;;;24.70;96.30;;;;;;4978179;28;20184;-81
2022/06/25 16:46:51;;;;;;;3.00;2.20;;;24.60;96.30;;;;;;4978732;28;20879;-81
2022/06/25 16:49:23;;;;;;;7.03;2.80;;;24.60;96.30;;;;;;4997612;28;20580;-81
2022/06/25 17:33:14;;;;;;;5.70;4.20;;;23.20;96.30;;;;;;5753427;22;20476;-78
2022/06/25 17:35:40;;;;;;;3.57;3.27;;;23.20;96.30;;;;;;4994056;28;20417;-78
2022/06/25 17:38:06;;;;;;;4.07;2.90;;;23.20;96.30;;;;;;4976343;28;20704;-78
2022/06/25 17:40:33;;;;;;;3.17;2.97;;;23.20;96.30;;;;;;4994872;28;20243;-78
2022/06/25 17:43:00;;;;;;;5.07;3.00;;;23.10;96.30;;;;;;4994674;28;20174;-77
2022/06/25 17:45:26;;;;;;;4.00;3.63;;;23.00;96.30;;;;;;4994617;28;20448;-77
2022/06/25 17:47:51;;;;;;;5.53;4.37;;;23.00;96.30;;;;;;4996406;28;20423;-79
2022/06/25 17:50:17;;;;;;;4.20;3.83;;;23.00;96.30;;;;;;4995996;28;20431;-82
2022/06/25 17:52:43;;;;;;;6.93;4.77;;;23.00;96.30;;;;;;4994687;28;20224;-82
2022/06/25 17:55:10;;;;;;;4.30;3.90;;;23.00;96.30;;;;;;4994796;28;20170;-82
2022/06/25 17:57:36;;;;;;;4.37;3.97;;;22.90;96.30;;;;;;4994494;28;20424;-81